• Join FlightAware (Why Join?)
  • Login
  • US Flag 
07:05AM EST


 

Airport Tracker/Info


-or-


 

Live Flight TrackerFlight Track Log ✈ AAL1459 ✈ 24-Apr-2013 ✈ KBOS - KORD

Flight Track Log - Related Links

Times and Time Zones

All times are in EDT time to prevent confusion due to time zone crossing. See the AAL1459 flight status page for this flight to view local times or setup timezone preferences in your user account.

Time Position Orientation Groundspeed Altitude Reporting Facility
EDT Latitude Longitude Course Direction KTS MPH feet Rate Location/Type
02:10PM 42.4500 -70.8412 90° East  Level FlightAware Approximate
02:10PM 42.3930 -70.8160 324° Northwest 265 305 4,800  Level FlightAware
02:10PM 42.4070 -70.7970 45° Northeast 267 307 5,600 3,120 Climbing FlightAware
02:11PM 42.5182 -70.7848 324° Northwest  Level FlightAware Approximate
02:11PM 42.4340 -70.7730 33° Northeast 272 313 6,900  Level FlightAware
02:11PM 42.4510 -70.7670 15° North 262 302 7,500 2,700 Climbing FlightAware
02:12PM 42.4800 -70.7770 346° North 260 299 8,700 3,000 Climbing FlightAware
02:12PM 42.5140 -70.8030 331° Northwest 265 305 10,300 1,920 Climbing FlightAware
02:13PM 42.5500 -70.8670 307° West 320 368 11,100 1,500 Climbing FlightAware
02:13PM 42.5890 -70.9350 308° West 345 397 12,500 2,520 Climbing FlightAware
02:14PM 42.6280 -71.0040 308° West 350 403 14,500 3,240 Climbing FlightAware
02:15PM 42.6740 -71.0850 308° West 351 404 17,100 3,000 Climbing FlightAware
02:16PM 42.7140 -71.1560 307° West 355 409 18,800 2,220 Climbing FlightAware
02:16PM 42.7550 -71.2300 307° West 375 432 20,100 2,040 Climbing FlightAware
02:17PM 42.8040 -71.3170 308° West 388 447 21,700 2,100 Climbing FlightAware
02:18PM 42.8410 -71.3900 305° West 393 452 22,900 1,560 Climbing FlightAware
02:18PM 42.8770 -71.4750 300° West 392 451 23,700 1,680 Climbing FlightAware
02:19PM 42.8870 -71.5850 277° West 394 453 25,300 1,920 Climbing FlightAware
02:20PM 42.8930 -71.6840 275° West 399 459 26,500 1,680 Climbing FlightAware
02:20PM 42.9020 -71.7940 276° West 407 468 27,600 1,440 Climbing FlightAware
02:21PM 42.9110 -71.9110 276° West 417 480 28,600 1,320 Climbing FlightAware
02:22PM 42.9190 -72.0130 276° West 423 487 29,500 1,500 Climbing FlightAware
02:22PM 42.9280 -72.1360 276° West 420 483 30,800 1,380 Climbing FlightAware
02:23PM 42.9360 -72.2430 276° West 429 494 31,500 1,380 Climbing FlightAware
02:24PM 42.9450 -72.3610 276° West 424 488 32,800 1,680 Climbing FlightAware
02:25PM 42.9530 -72.4640 276° West 417 480 33,900 1,560 Climbing FlightAware
02:25PM 42.9600 -72.5680 275° West 415 478 34,900 1,200 Climbing FlightAware
02:26PM 42.9690 -72.6900 276° West 417 480 35,600 1,020 Climbing FlightAware
02:27PM 42.9760 -72.7930 275° West 415 478 36,400 1,080 Climbing FlightAware
02:27PM 42.9840 -72.9090 275° West 410 472 37,200 900 Climbing FlightAware
02:28PM 42.9910 -73.0100 275° West 414 476 37,700 540 Climbing FlightAware
02:29PM 42.9970 -73.1110 275° West 409 471 38,000 180 Climbing FlightAware
02:30PM 43.0030 -73.1970 275° West 389 448 38,000  Level FlightAware
02:30PM 43.0100 -73.2940 276° West 387 445 38,000  Level FlightAware
02:31PM 43.0170 -73.4180 274° West 395 455 38,000  Level FlightAware
02:32PM 43.0240 -73.5290 275° West 399 459 38,000  Level FlightAware
02:32PM 43.0330 -73.6760 275° West 400 460 38,000  Level FlightAware
02:33PM 43.0400 -73.7860 275° West 392 451 38,000  Level FlightAware
02:34PM 43.0460 -73.8840 275° West 391 450 38,000  Level FlightAware
02:35PM 43.0520 -73.9820 275° West 390 449 38,000  Level FlightAware
02:35PM 43.0580 -74.0930 274° West 391 450 38,000  Level FlightAware
02:36PM 43.0640 -74.1920 275° West 392 451 38,000  Level FlightAware
02:37PM 43.0710 -74.3190 274° West 392 451 38,000  Level FlightAware
02:38PM 43.0800 -74.4770 275° West 394 453 38,000  Level FlightAware
02:39PM 43.0860 -74.5840 274° West 400 460 38,000  Level FlightAware
02:39PM 43.0920 -74.7010 274° West 402 463 38,000  Level FlightAware
02:40PM 43.0970 -74.8130 274° West 401 461 38,000  Level FlightAware
02:41PM 43.1030 -74.9160 275° West 393 452 38,000  Level FlightAware
02:42PM 43.1070 -75.0090 273° West 387 445 38,000  Level FlightAware
02:42PM 43.1130 -75.1210 274° West 386 444 38,000  Level FlightAware
02:43PM 43.1170 -75.2120 273° West 383 441 38,000  Level FlightAware
02:44PM 43.1220 -75.3140 274° West 378 435 38,000  Level FlightAware
02:44PM 43.1270 -75.4210 274° West 377 434 38,000  Level FlightAware
02:45PM 43.1310 -75.5140 273° West 373 429 38,000  Level FlightAware
02:46PM 43.1360 -75.6090 274° West 369 425 38,000  Level FlightAware
02:46PM 43.1390 -75.6920 273° West 366 421 38,000  Level FlightAware
02:47PM 43.1440 -75.7950 274° West 363 418 38,000  Level FlightAware
02:48PM 43.1480 -75.8850 274° West 360 414 38,000  Level FlightAware
02:48PM 43.1520 -75.9830 273° West 358 412 38,000  Level FlightAware
02:49PM 43.1560 -76.0790 273° West 357 411 38,000  Level FlightAware
02:50PM 43.1590 -76.1780 272° West 345 397 38,000  Level FlightAware
02:51PM 43.1610 -76.2610 272° West 348 400 38,000  Level FlightAware
02:51PM 43.1600 -76.3620 269° West 332 382 38,000  Level FlightAware
02:52PM 43.1600 -76.4450 270° West 332 382 38,000  Level FlightAware
02:53PM 43.1600 -76.5600 270° West 330 380 38,000  Level FlightAware
02:54PM 43.1600 -76.6400 270° West 330 380 38,000  Level FlightAware
02:54PM 43.1600 -76.7370 270° West 329 379 38,000  Level FlightAware
02:55PM 43.1590 -76.8200 269° West 326 375 38,000  Level FlightAware
02:56PM 43.1590 -76.9110 270° West 326 375 38,000  Level FlightAware
02:56PM 43.1580 -76.9940 269° West 327 376 38,000  Level FlightAware
02:57PM 43.1580 -77.0780 270° West 329 379 38,000  Level FlightAware
02:58PM 43.1570 -77.1670 269° West 329 379 38,000  Level FlightAware
02:58PM 43.1570 -77.2540 270° West 329 379 38,000  Level FlightAware
02:59PM 43.1560 -77.3490 269° West 330 380 38,000  Level FlightAware
03:00PM 43.1550 -77.4320 269° West 334 384 38,000  Level FlightAware
03:01PM 43.1540 -77.5270 269° West 334 384 38,000  Level FlightAware
03:01PM 43.1530 -77.6100 269° West 334 384 38,000  Level FlightAware
03:02PM 43.1520 -77.6930 269° West 337 388 38,000  Level FlightAware
03:03PM 43.1510 -77.7910 269° West 339 390 38,000  Level FlightAware
03:03PM 43.1500 -77.8520 269° West 339 390 38,000  Level FlightAware
03:04PM 43.1490 -77.9170 269° West 339 390 38,000  Level FlightAware
03:04PM 43.1480 -77.9940 269° West 339 390 38,000  Level FlightAware
03:05PM 43.1470 -78.0800 269° West 338 389 38,000  Level FlightAware
03:06PM 43.1450 -78.1620 268° West 339 390 38,000  Level FlightAware
03:06PM 43.1440 -78.2400 269° West 339 390 38,000  Level FlightAware
03:07PM 43.1430 -78.3260 269° West 341 392 38,000  Level FlightAware
03:08PM 43.1410 -78.4240 268° West 340 391 38,000  Level FlightAware
03:08PM 43.1380 -78.5090 267° West 341 392 38,000  Level FlightAware
03:09PM 43.1360 -78.5950 268° West 342 394 38,000  Level FlightAware
03:10PM 43.1330 -78.6920 268° West 344 396 38,000  Level FlightAware
03:10PM 43.1310 -78.7800 268° West 345 397 38,000  Level FlightAware
03:11PM 43.1280 -78.8670 267° West 348 400 38,000  Level FlightAware
03:12PM 43.1260 -78.9450 268° West 349 402 38,000  Level FlightAware
03:12PM 43.1230 -79.0450 268° West 351 404 38,000  Level FlightAware
03:13PM 43.1200 -79.1320 267° West 341 392 38,000  Level FlightAware
03:14PM 43.1180 -79.2070 268° West 336 387 38,000  Level FlightAware
03:14PM 43.1150 -79.2900 267° West 334 384 38,000  Level FlightAware
03:15PM 43.1120 -79.3750 267° West 335 386 38,000  Level FlightAware
03:16PM 43.1090 -79.4550 267° West 335 386 38,000  Level FlightAware
03:16PM 43.1070 -79.5200 268° West 335 386 38,000  Level FlightAware
03:17PM 43.1030 -79.6180 267° West 335 386 38,000  Level FlightAware
03:18PM 43.1000 -79.7010 267° West 336 387 38,000  Level FlightAware
03:18PM 43.0970 -79.7870 267° West 336 387 38,000  Level FlightAware
03:19PM 43.0940 -79.8810 268° West 336 387 38,000  Level FlightAware
03:20PM 43.0900 -79.9680 266° West 337 388 38,000  Level FlightAware
03:20PM 43.0870 -80.0630 268° West 338 389 38,000  Level FlightAware
03:21PM 43.0830 -80.1460 266° West 339 390 38,000  Level FlightAware
03:22PM 43.0800 -80.2350 267° West 341 392 38,000  Level FlightAware
03:22PM 43.0750 -80.3310 266° West 343 395 38,000  Level FlightAware
03:23PM 43.0720 -80.4150 267° West 345 397 38,000  Level FlightAware
03:24PM 43.0670 -80.5170 266° West 347 399 38,000  Level FlightAware
03:25PM 43.0640 -80.6040 267° West 346 398 38,000  Level FlightAware
03:25PM 43.0600 -80.6900 266° West 344 396 38,000  Level FlightAware
03:26PM 43.0550 -80.7870 266° West 344 396 38,000  Level FlightAware
03:27PM 43.0520 -80.8650 267° West 352 405 38,000  Level FlightAware
03:27PM 43.0590 -80.9100 282° West 380 437 38,000  Level FlightAware
03:28PM 43.1050 -80.9900 308° West 423 487 38,000  Level FlightAware
03:28PM 43.1610 -81.0630 316° Northwest 424 488 38,000  Level FlightAware
03:29PM 43.2320 -81.1550 317° Northwest 423 487 38,000  Level FlightAware
03:30PM 43.2830 -81.2200 317° Northwest 424 488 38,000  Level FlightAware
03:30PM 43.3450 -81.3010 316° Northwest 426 490 38,000  Level FlightAware
03:31PM 43.4050 -81.3790 317° Northwest 426 490 38,000  Level FlightAware
03:32PM 43.4600 -81.4570 314° West 412 474 38,000  Level FlightAware
03:32PM 43.4700 -81.4950 290° West 364 419 38,000  Level FlightAware
03:33PM 43.4600 -81.5840 261° West 339 390 38,000  Level FlightAware
03:33PM 43.4430 -81.6660 254° West 336 387 38,000  Level FlightAware
03:34PM 43.4250 -81.7480 253° West 337 388 38,000  Level FlightAware
03:35PM 43.4030 -81.8480 253° West 338 389 38,000  Level FlightAware
03:36PM 43.3820 -81.9440 253° West 338 389 38,000  Level FlightAware
03:36PM 43.3640 -82.0260 253° West 341 392 38,000  Level FlightAware
03:37PM 43.3460 -82.1090 253° West 344 396 38,000  Level FlightAware
03:38PM 43.3280 -82.1880 253° West 346 398 38,000  Level FlightAware
03:38PM 43.3120 -82.2610 253° West 347 399 38,000  Level FlightAware
03:39PM 43.2930 -82.3420 252° West 349 402 38,000  Level FlightAware
03:40PM 43.2760 -82.4220 254° West 350 403 38,000  Level FlightAware
03:40PM 43.2510 -82.5300 252° West 351 404 38,000 -420 Level FlightAware
03:41PM 43.2250 -82.6460 253° West 353 406 37,400 -900 Descending FlightAware
03:42PM 43.2060 -82.7240 252° West 355 409 36,700 -1,080 Descending FlightAware
03:43PM 43.1820 -82.8320 253° West 361 415 35,700 -1,200 Descending FlightAware
03:43PM 43.1610 -82.9250 253° West 353 406 34,900 -1,200 Descending FlightAware
03:44PM 43.1380 -83.0200 252° West 357 411 34,000 -1,200 Descending FlightAware
03:45PM 43.1130 -83.1280 252° West 361 415 33,100 -1,200 Descending FlightAware
03:46PM 43.0920 -83.2170 252° West 369 425 32,300 -840 Descending FlightAware
03:46PM 43.0710 -83.3090 253° West 369 425 32,000 -240 Descending FlightAware
03:47PM 43.0470 -83.4090 252° West 370 426 32,000  Level FlightAware
03:48PM 43.0310 -83.4800 253° West 372 428 32,000  Level FlightAware
03:48PM 43.0020 -83.5990 252° West 375 432 32,000  Level FlightAware
03:49PM 42.9810 -83.6880 252° West 376 433 32,000  Level FlightAware
03:50PM 42.9640 -83.7780 256° West 388 447 32,000  Level FlightAware
03:50PM 42.9530 -83.8890 262° West 389 448 32,000  Level FlightAware
03:51PM 42.9440 -83.9870 263° West 386 444 32,000  Level FlightAware
03:52PM 42.9330 -84.0920 262° West 381 438 32,000  Level FlightAware
03:53PM 42.9240 -84.1900 263° West 381 438 32,000  Level FlightAware
03:53PM 42.9140 -84.2860 262° West 381 438 32,000  Level FlightAware
03:54PM 42.9040 -84.3890 262° West 382 440 32,000  Level FlightAware
03:55PM 42.8940 -84.4870 262° West 383 441 32,000  Level FlightAware
03:55PM 42.8830 -84.5920 262° West 384 442 32,000  Level FlightAware
03:56PM 42.8730 -84.6910 262° West 385 443 32,000  Level FlightAware
03:57PM 42.8620 -84.8010 262° West 386 444 32,000  Level FlightAware
03:57PM 42.8520 -84.8940 262° West 387 445 32,000  Level FlightAware
03:58PM 42.8420 -84.9910 262° West 388 447 32,000 -120 Level FlightAware
03:59PM 42.8300 -85.1010 262° West 386 444 31,900 -600 Descending FlightAware
04:00PM 42.8200 -85.1940 262° West 369 425 31,200 -1,080 Descending FlightAware
04:00PM 42.8100 -85.2850 262° West 367 422 30,500 -1,080 Descending FlightAware
04:01PM 42.7980 -85.3930 261° West 372 428 29,700 -1,020 Descending FlightAware
04:02PM 42.7880 -85.4850 262° West 371 427 29,100 -960 Descending FlightAware
04:02PM 42.7720 -85.5820 257° West 368 423 28,400 -1,020 Descending FlightAware
04:03PM 42.7550 -85.6740 256° West 374 430 27,700 -1,020 Descending FlightAware
04:04PM 42.7390 -85.7650 257° West 381 438 27,100 -960 Descending FlightAware
04:04PM 42.7190 -85.8740 256° West 393 452 26,400 -1,320 Descending FlightAware
04:05PM 42.7020 -85.9680 256° West 385 443 25,300 -2,100 Descending FlightAware
04:06PM 42.6830 -86.0730 256° West 373 429 23,500 -2,400 Descending FlightAware
04:07PM 42.6660 -86.1610 255° West 365 420 21,900 -2,340 Descending FlightAware
04:07PM 42.6500 -86.2480 256° West 355 409 20,400 -1,380 Descending FlightAware
04:08PM 42.6330 -86.3420 256° West 352 405 20,000 -360 Descending FlightAware
04:09PM 42.6160 -86.4320 256° West 352 405 19,900 -600 Descending FlightAware
04:09PM 42.5980 -86.5250 255° West 352 405 19,200 -1,740 Descending FlightAware
04:10PM 42.5810 -86.6140 255° West 351 404 17,500 -2,700 Descending FlightAware
04:11PM 42.5660 -86.7000 257° West 347 399 15,600 -2,640 Descending FlightAware
04:11PM 42.5440 -86.7870 251° West 329 379 13,800 -2,280 Descending FlightAware
04:12PM 42.5230 -86.8630 249° West 321 369 12,400 -2,100 Descending FlightAware
04:13PM 42.5010 -86.9460 250° West 330 380 10,900 -1,440 Descending FlightAware
04:14PM 42.4790 -87.0240 249° West 321 369 10,400 -660 Descending FlightAware
04:14PM 42.4570 -87.1050 250° West 319 367 10,000 -480 Descending FlightAware
04:15PM 42.4440 -87.1530 250° West 306 352 9,900 -180 Descending FlightAware
04:15PM 42.4360 -87.1820 250° West 286 329 9,900 -240 Level FlightAware
04:15PM 42.4280 -87.2030 243° Southwest 276 318 9,800 -480 Descending FlightAware
04:15PM 42.4190 -87.2140 222° Southwest 277 319 9,700 -1,440 Descending FlightAware
04:16PM 42.3980 -87.2250 201° Southwest 290 334 9,200 -1,080 Descending FlightAware
04:16PM 42.3580 -87.2290 184° South 288 331 8,900 -840 Descending FlightAware
04:17PM 42.3210 -87.2390 191° South 286 329 8,400 -1,320 Descending FlightAware
04:17PM 42.2880 -87.2490 193° South 288 331 7,700 -1,680 Descending FlightAware
04:17PM 42.2670 -87.2550 192° South 286 329 7,300 -1,200 Descending FlightAware
04:18PM 42.2370 -87.2650 194° South 282 325 6,900 -480 Descending FlightAware
04:18PM 42.1990 -87.2770 193° South 278 320 6,900  Level FlightAware
04:19PM 42.1610 -87.2890 193° South 278 320 6,900  Level FlightAware
04:19PM 42.1290 -87.2990 193° South 280 322 6,900  Level FlightAware
04:20PM 42.0900 -87.3120 194° South 278 320 6,900  Level FlightAware
04:20PM 42.0630 -87.3280 204° Southwest 257 296 6,900  Level FlightAware
04:20PM 42.0490 -87.3390 210° Southwest 240 276 6,900  Level FlightAware
04:21PM 42.0390 -87.3560 232° Southwest 229 264 6,900 -300 Level FlightAware
04:21PM 42.0200 -87.3880 231° Southwest 220 253 6,700 -780 Descending FlightAware
04:21PM 42.0040 -87.4160 232° Southwest 217 250 6,200 -1,200 Descending FlightAware
04:22PM 41.9930 -87.4340 231° Southwest 214 246 5,900 -600 Descending FlightAware
04:22PM 41.9870 -87.4490 242° Southwest 204 235 5,900  Level FlightAware
04:22PM 41.9840 -87.4770 262° West 184 212 5,900  Level FlightAware
04:23PM 41.9830 -87.5110 268° West 166 191 5,900  Level FlightAware
04:23PM 41.9830 -87.5270 270° West 166 191 5,900 -180 Level FlightAware
04:24PM 41.9830 -87.5560 270° West 162 186 5,800 -600 Descending FlightAware
04:24PM 41.9840 -87.5770 274° West 165 190 5,400 -1,080 Descending FlightAware
04:24PM 41.9830 -87.6070 267° West 167 192 4,900 -1,020 Descending FlightAware
04:25PM 41.9840 -87.6320 273° West 158 182 4,500 -960 Descending FlightAware
04:25PM 41.9840 -87.6570 270° West 157 181 4,100 -900 Descending FlightAware
04:26PM 41.9840 -87.6920 270° West 156 180 3,600 -900 Descending FlightAware
04:26PM 41.9840 -87.7090 270° West 158 182 3,300 -900 Descending FlightAware
04:27PM 41.9840 -87.7500 270° West 156 180 2,700 -900 Descending FlightAware
04:27PM 41.9840 -87.7610 270° West 159 183 2,500 -900 Descending FlightAware
04:28PM 41.9840 -87.7890 270° West 148 170 2,100 -900 Descending FlightAware
04:28PM 41.9840 -87.8140 270° West 137 158 1,700 -720 Descending FlightAware
04:28PM 41.9840 -87.8290 270° West 141 162 1,500 -780 Descending FlightAware
04:29PM 41.9840 -87.8610 270° West 137 158 1,000 -840 Descending FlightAware
04:29PM 41.9840 -87.8810 270° West 135 155 700 -780 Descending FlightAware
04:30PM 41.9840 -87.8930 270° West 138 159 500 -840 Descending FlightAware